createdAt,value
2023-03-07T00:00:50.175Z,16.60
2023-03-07T00:03:17.985Z,17.57
2023-03-07T00:05:45.248Z,18.03
2023-03-07T00:08:12.946Z,18.50
2023-03-07T00:10:40.275Z,18.87
2023-03-07T00:13:08.566Z,16.40
2023-03-07T00:15:37.358Z,16.37
2023-03-07T00:18:04.675Z,17.70
2023-03-07T00:20:31.968Z,18.83
2023-03-07T00:22:59.216Z,18.07
2023-03-07T00:25:26.477Z,18.47
2023-03-07T00:27:53.737Z,17.10
2023-03-07T00:30:20.993Z,18.77
2023-03-07T00:32:48.344Z,19.57
2023-03-07T00:35:15.622Z,19.80
2023-03-07T00:37:42.872Z,19.40
2023-03-07T00:40:10.523Z,17.53
2023-03-07T00:42:37.785Z,18.70
2023-03-07T00:45:05.250Z,20.73
2023-03-07T00:47:32.583Z,19.97
2023-03-07T00:49:59.836Z,20.30
2023-03-07T00:52:27.164Z,21.90
2023-03-07T00:54:54.509Z,20.37
2023-03-07T00:57:21.829Z,21.37
2023-03-07T00:59:49.111Z,19.10
2023-03-07T01:02:16.423Z,20.67
2023-03-07T01:04:43.763Z,20.00
2023-03-07T01:07:11.090Z,21.17
2023-03-07T01:09:38.417Z,19.10
2023-03-07T01:12:07.151Z,20.90
2023-03-07T01:14:34.478Z,20.50
2023-03-07T01:17:02.305Z,20.93
2023-03-07T01:19:29.701Z,20.20
2023-03-07T01:21:57.079Z,21.27
2023-03-07T01:24:24.385Z,21.13
2023-03-07T01:26:51.690Z,21.03
2023-03-07T01:29:19.022Z,19.37
2023-03-07T01:31:46.311Z,21.97
2023-03-07T01:34:13.674Z,20.00
2023-03-07T01:36:40.987Z,20.80
2023-03-07T01:39:13.976Z,20.40
2023-03-07T01:41:41.820Z,21.80
2023-03-07T01:44:10.810Z,20.80
2023-03-07T01:46:45.622Z,19.63
2023-03-07T01:49:14.554Z,19.43
2023-03-07T01:51:43.352Z,20.23
2023-03-07T01:54:12.269Z,20.00
2023-03-07T01:56:39.924Z,21.00
2023-03-07T01:59:07.261Z,19.43
2023-03-07T02:01:35.143Z,20.30
2023-03-07T02:04:12.973Z,19.67
2023-03-07T02:06:40.626Z,20.97
2023-03-07T02:09:11.373Z,19.60
2023-03-07T02:11:40.479Z,20.23
2023-03-07T02:14:07.744Z,17.23
2023-03-07T02:16:35.931Z,18.13
2023-03-07T02:19:03.282Z,17.17
2023-03-07T02:21:32.204Z,16.53
2023-03-07T02:24:07.004Z,17.60
2023-03-07T02:26:44.063Z,16.30
2023-03-07T02:29:12.462Z,16.20
2023-03-07T02:31:39.741Z,15.40
2023-03-07T02:34:23.659Z,13.70
2023-03-07T02:36:52.522Z,13.83
2023-03-07T02:39:21.421Z,13.87
2023-03-07T02:41:49.554Z,12.60
2023-03-07T02:44:16.908Z,12.40
2023-03-07T02:46:44.255Z,12.13
2023-03-07T02:49:11.512Z,13.90
2023-03-07T02:51:38.852Z,12.10
2023-03-07T02:54:06.327Z,11.20
2023-03-07T02:56:33.678Z,11.50
2023-03-07T02:59:01.211Z,12.07
2023-03-07T03:01:28.603Z,12.37
2023-03-07T03:03:55.898Z,10.60
2023-03-07T03:06:23.177Z,14.00
2023-03-07T03:08:50.552Z,10.80
2023-03-07T03:11:17.851Z,11.10
2023-03-07T03:13:45.232Z,11.47
2023-03-07T03:16:13.450Z,12.53
2023-03-07T03:18:40.834Z,12.70
2023-03-07T03:21:09.317Z,12.47
2023-03-07T03:23:36.658Z,12.17
2023-03-07T03:26:07.410Z,11.90
2023-03-07T03:28:38.001Z,13.43
2023-03-07T03:31:06.772Z,12.53
2023-03-07T03:33:34.294Z,12.60
2023-03-07T03:36:03.233Z,12.50
2023-03-07T03:38:30.720Z,13.20
2023-03-07T03:40:58.051Z,13.43
2023-03-07T03:43:25.320Z,13.97
2023-03-07T03:45:56.891Z,14.77
2023-03-07T03:48:24.703Z,15.10
2023-03-07T03:50:52.006Z,14.30
2023-03-07T03:53:19.364Z,16.03
2023-03-07T03:55:46.709Z,15.03
2023-03-07T03:58:13.974Z,14.47
2023-03-07T04:00:41.411Z,14.40
2023-03-07T04:03:08.844Z,15.10
2023-03-07T04:05:36.810Z,14.37
2023-03-07T04:08:04.149Z,14.33
2023-03-07T04:10:31.466Z,15.70
2023-03-07T04:12:58.855Z,14.30
2023-03-07T04:15:26.207Z,15.33
2023-03-07T04:17:53.558Z,15.20
2023-03-07T04:20:21.490Z,14.73
2023-03-07T04:22:49.284Z,14.30
2023-03-07T04:25:16.645Z,15.80
2023-03-07T04:27:44.137Z,14.07
2023-03-07T04:30:12.101Z,15.57
2023-03-07T04:32:39.682Z,14.60
2023-03-07T04:35:07.179Z,14.77
2023-03-07T04:37:34.517Z,15.10
2023-03-07T04:40:02.046Z,14.30
2023-03-07T04:42:29.376Z,15.27
2023-03-07T04:44:56.733Z,14.70
2023-03-07T04:47:24.178Z,13.73
2023-03-07T04:49:51.516Z,14.20
2023-03-07T04:52:18.835Z,15.60
2023-03-07T04:54:46.169Z,14.27
2023-03-07T04:57:13.505Z,13.80
2023-03-07T04:59:40.854Z,14.47
2023-03-07T05:02:08.845Z,14.90
2023-03-07T05:04:36.154Z,13.80
2023-03-07T05:07:03.538Z,14.50
2023-03-07T05:09:31.053Z,14.30
2023-03-07T05:11:58.376Z,13.43
2023-03-07T05:14:25.709Z,13.47
2023-03-07T05:16:53.138Z,13.53
2023-03-07T05:19:20.413Z,13.50
2023-03-07T05:21:49.055Z,14.40
2023-03-07T05:24:16.565Z,14.57
2023-03-07T05:26:43.882Z,14.07
2023-03-07T05:29:11.289Z,13.47
2023-03-07T05:31:38.681Z,13.87
2023-03-07T05:34:06.107Z,13.73
2023-03-07T05:36:33.454Z,13.13
2023-03-07T05:39:00.836Z,12.97
2023-03-07T05:41:28.190Z,12.80
2023-03-07T05:43:55.444Z,12.80
2023-03-07T05:46:22.877Z,13.27
2023-03-07T05:48:50.300Z,13.47
2023-03-07T05:51:17.680Z,13.00
2023-03-07T05:53:46.242Z,12.63
2023-03-07T05:56:13.838Z,13.17
2023-03-07T05:58:41.199Z,12.50
2023-03-07T06:01:08.533Z,13.17
2023-03-07T06:03:35.966Z,12.10
2023-03-07T06:06:03.770Z,11.97
2023-03-07T06:08:31.047Z,12.07
2023-03-07T06:10:58.397Z,12.67
2023-03-07T06:13:26.229Z,12.60
2023-03-07T06:15:54.317Z,13.20
2023-03-07T06:18:23.205Z,12.00
2023-03-07T06:21:03.775Z,12.67
2023-03-07T06:23:32.100Z,12.60
2023-03-07T06:25:59.896Z,12.10
2023-03-07T06:28:27.256Z,11.70
2023-03-07T06:30:54.770Z,12.17
2023-03-07T06:33:22.122Z,12.77
2023-03-07T06:35:49.488Z,12.43
2023-03-07T06:38:17.568Z,12.83
2023-03-07T06:40:44.927Z,12.60
2023-03-07T06:43:12.878Z,12.50
2023-03-07T06:45:40.244Z,12.07
2023-03-07T06:48:07.668Z,12.83
2023-03-07T06:50:35.882Z,12.47
2023-03-07T06:53:03.351Z,13.00
2023-03-07T06:55:30.707Z,12.47
2023-03-07T06:57:58.046Z,12.30
2023-03-07T07:00:25.369Z,11.80
2023-03-07T07:02:52.832Z,11.63
2023-03-07T07:05:20.400Z,12.10
2023-03-07T07:07:47.696Z,12.00
2023-03-07T07:10:15.033Z,12.40
2023-03-07T07:12:42.475Z,13.73
2023-03-07T07:15:10.427Z,10.70
2023-03-07T07:17:40.895Z,11.73
2023-03-07T07:20:11.036Z,11.40
2023-03-07T07:22:38.374Z,11.23
2023-03-07T07:25:06.137Z,11.47
2023-03-07T07:27:33.628Z,11.30
2023-03-07T07:30:00.965Z,11.43
2023-03-07T07:32:28.428Z,10.57
2023-03-07T07:34:55.954Z,11.83
2023-03-07T07:37:23.761Z,11.20
2023-03-07T07:39:51.380Z,11.30
2023-03-07T07:42:18.742Z,10.97
2023-03-07T07:44:46.743Z,10.60
2023-03-07T07:47:14.250Z,10.80
2023-03-07T07:49:41.584Z,10.60
2023-03-07T07:52:09.019Z,9.93
2023-03-07T07:54:36.362Z,11.43
2023-03-07T07:57:03.699Z,10.47
2023-03-07T07:59:32.597Z,11.03
2023-03-07T08:01:59.979Z,10.40
2023-03-07T08:04:27.510Z,11.73
2023-03-07T08:06:54.968Z,10.17
2023-03-07T08:09:22.304Z,10.50
2023-03-07T08:11:49.876Z,9.57
2023-03-07T08:14:17.233Z,10.10
2023-03-07T08:16:44.822Z,10.90
2023-03-07T08:19:12.160Z,11.33
2023-03-07T08:21:39.715Z,10.30
2023-03-07T08:24:07.347Z,11.37
2023-03-07T08:26:34.686Z,10.67
2023-03-07T08:29:02.038Z,10.53
2023-03-07T08:31:29.464Z,11.23
2023-03-07T08:33:56.867Z,10.47
2023-03-07T08:36:24.465Z,10.27
2023-03-07T08:38:52.331Z,11.13
2023-03-07T08:41:20.791Z,10.40
2023-03-07T08:43:48.440Z,10.50
2023-03-07T08:46:15.803Z,11.50
2023-03-07T08:48:43.148Z,10.13
2023-03-07T08:51:12.411Z,10.33
2023-03-07T08:53:39.837Z,10.10
2023-03-07T08:56:08.723Z,10.33
2023-03-07T08:58:36.644Z,9.90
2023-03-07T09:01:05.232Z,10.87
2023-03-07T09:03:32.768Z,11.40
2023-03-07T09:06:00.125Z,9.60
2023-03-07T09:08:27.734Z,9.80
2023-03-07T09:10:55.278Z,10.57
2023-03-07T09:13:22.624Z,10.43
2023-03-07T09:15:49.950Z,10.87
2023-03-07T09:18:17.290Z,9.70
2023-03-07T09:20:44.718Z,9.17
2023-03-07T09:23:12.034Z,7.90
2023-03-07T09:25:40.133Z,11.20
2023-03-07T09:28:07.649Z,9.40
2023-03-07T09:30:34.966Z,9.20
2023-03-07T09:33:02.369Z,8.97
2023-03-07T09:35:29.736Z,8.30
2023-03-07T09:37:57.094Z,9.23
2023-03-07T09:40:25.930Z,9.03
2023-03-07T09:42:57.445Z,7.60
2023-03-07T09:45:26.363Z,8.17
2023-03-07T09:48:04.171Z,8.37
2023-03-07T09:50:49.548Z,7.23
2023-03-07T09:53:18.359Z,7.73
2023-03-07T09:55:45.879Z,8.50
2023-03-07T09:58:17.694Z,8.50
2023-03-07T10:00:48.113Z,8.90
2023-03-07T10:03:35.236Z,8.53
2023-03-07T10:06:07.056Z,7.90
2023-03-07T10:08:34.888Z,8.43
2023-03-07T10:11:04.013Z,8.33
2023-03-07T10:13:32.918Z,9.13
2023-03-07T10:16:01.814Z,8.20
2023-03-07T10:18:36.317Z,8.60
2023-03-07T10:21:21.853Z,8.90
2023-03-07T10:23:59.835Z,9.03
2023-03-07T10:26:31.667Z,8.43
2023-03-07T10:29:00.240Z,7.83
2023-03-07T10:31:38.971Z,8.43
2023-03-07T10:34:07.831Z,7.40
2023-03-07T10:36:49.007Z,9.00
2023-03-07T10:39:26.803Z,8.70
2023-03-07T10:41:55.233Z,9.20
2023-03-07T10:44:23.150Z,8.03
2023-03-07T10:46:56.103Z,8.27
2023-03-07T10:49:22.671Z,8.07
2023-03-07T10:52:06.728Z,8.20
2023-03-07T10:54:35.222Z,7.20
2023-03-07T10:57:07.144Z,8.13
2023-03-07T10:59:35.065Z,8.37
2023-03-07T11:02:03.185Z,8.70
2023-03-07T11:04:32.120Z,8.10
2023-03-07T11:07:01.023Z,8.57
2023-03-07T11:09:32.410Z,8.10
2023-03-07T11:12:00.930Z,8.20
2023-03-07T11:14:29.371Z,7.30
2023-03-07T11:17:01.296Z,7.60
2023-03-07T11:19:30.176Z,7.07
2023-03-07T11:21:58.061Z,7.60
2023-03-07T11:24:29.274Z,7.50
2023-03-07T11:26:58.017Z,8.20
2023-03-07T11:29:25.885Z,7.27
2023-03-07T11:32:06.747Z,7.90
2023-03-07T11:34:41.505Z,7.43
2023-03-07T11:37:27.297Z,6.97
2023-03-07T11:39:56.161Z,8.17
2023-03-07T11:42:27.994Z,6.83
2023-03-07T11:45:02.619Z,7.43
2023-03-07T11:47:34.505Z,7.60
2023-03-07T11:50:18.113Z,7.17
2023-03-07T11:52:50.179Z,7.83
2023-03-07T11:55:27.788Z,7.37
2023-03-07T11:58:02.717Z,6.40
2023-03-07T12:00:34.482Z,7.03
2023-03-07T12:03:03.470Z,6.93
2023-03-07T12:05:38.470Z,7.10
2023-03-07T12:08:16.188Z,6.33
2023-03-07T12:10:47.689Z,7.20
2023-03-07T12:13:16.490Z,7.17
2023-03-07T12:16:02.834Z,7.10
2023-03-07T12:18:31.692Z,8.07
2023-03-07T12:21:03.507Z,7.60
2023-03-07T12:23:36.920Z,7.70
2023-03-07T12:26:05.788Z,7.50
2023-03-07T12:28:34.673Z,8.50
2023-03-07T12:31:12.439Z,7.90
2023-03-07T12:33:41.434Z,7.50
2023-03-07T12:36:10.513Z,6.70
2023-03-07T12:38:39.497Z,8.10
2023-03-07T12:41:26.436Z,7.50
2023-03-07T12:43:55.249Z,6.80
2023-03-07T12:46:24.186Z,6.70
2023-03-07T12:48:56.040Z,7.30
2023-03-07T12:51:26.671Z,6.93
2023-03-07T12:53:58.220Z,7.03
2023-03-07T12:56:33.279Z,7.00
2023-03-07T12:59:02.411Z,6.47
2023-03-07T13:01:34.335Z,6.80
2023-03-07T13:04:03.393Z,5.90
2023-03-07T13:06:31.551Z,5.80
2023-03-07T13:09:00.041Z,7.00
2023-03-07T13:11:29.068Z,6.43
2023-03-07T13:13:58.196Z,6.50
2023-03-07T13:16:27.092Z,6.57
2023-03-07T13:18:54.377Z,6.73
2023-03-07T13:21:32.514Z,6.50
2023-03-07T13:24:18.004Z,5.90
2023-03-07T13:26:45.607Z,6.70
2023-03-07T13:29:13.336Z,6.20
2023-03-07T13:31:42.484Z,6.57
2023-03-07T13:34:28.415Z,5.77
2023-03-07T13:36:55.958Z,6.60
2023-03-07T13:39:36.306Z,6.20
2023-03-07T13:42:03.910Z,7.43
2023-03-07T13:44:32.802Z,6.67
2023-03-07T13:47:01.760Z,6.63
2023-03-07T13:49:30.629Z,6.93
2023-03-07T13:51:59.504Z,6.83
2023-03-07T13:54:27.741Z,6.60
2023-03-07T13:56:55.701Z,6.60
2023-03-07T13:59:24.746Z,7.47
2023-03-07T14:01:53.533Z,6.80
2023-03-07T14:04:38.409Z,8.00
2023-03-07T14:06:52.912Z,7.50
2023-03-07T14:09:21.830Z,6.43
2023-03-07T14:11:53.585Z,7.30
2023-03-07T14:14:22.469Z,8.43
2023-03-07T14:16:54.266Z,7.10
2023-03-07T14:19:23.065Z,6.63
2023-03-07T14:21:51.943Z,7.70
2023-03-07T14:24:25.293Z,7.70
2023-03-07T14:26:59.827Z,6.80
2023-03-07T14:29:28.930Z,6.97
2023-03-07T14:31:57.563Z,7.30
2023-03-07T14:34:26.730Z,7.03
2023-03-07T14:36:56.112Z,6.90
2023-03-07T14:39:24.325Z,6.57
2023-03-07T14:42:11.802Z,6.47
2023-03-07T14:44:43.442Z,7.80
2023-03-07T14:47:27.488Z,6.80
2023-03-07T14:49:59.003Z,6.53
2023-03-07T14:52:31.159Z,8.30
2023-03-07T14:54:57.984Z,8.17
2023-03-07T14:57:26.855Z,8.63
2023-03-07T15:00:04.665Z,7.60
2023-03-07T15:02:31.996Z,7.60
2023-03-07T15:04:59.336Z,7.30
2023-03-07T15:07:26.668Z,6.90
2023-03-07T15:09:54.381Z,6.90
2023-03-07T15:12:23.243Z,6.77
2023-03-07T15:14:52.172Z,6.33
2023-03-07T15:17:21.043Z,5.97
2023-03-07T15:19:49.929Z,6.00
2023-03-07T15:22:35.459Z,5.97
2023-03-07T15:25:04.131Z,6.30
2023-03-07T15:27:32.272Z,6.13
2023-03-07T15:30:01.878Z,6.40
2023-03-07T15:32:39.147Z,5.70
2023-03-07T15:35:13.589Z,5.97
2023-03-07T15:37:54.453Z,5.93
2023-03-07T15:40:23.365Z,6.33
2023-03-07T15:42:52.587Z,5.60
2023-03-07T15:45:30.861Z,5.40
2023-03-07T15:47:59.735Z,5.90
2023-03-07T15:50:29.420Z,6.90
2023-03-07T15:52:58.331Z,5.83
2023-03-07T15:55:27.617Z,6.40
2023-03-07T15:57:56.767Z,5.90
2023-03-07T16:00:31.542Z,6.33
2023-03-07T16:03:17.088Z,6.10
2023-03-07T16:05:44.634Z,7.67
2023-03-07T16:08:13.871Z,6.60
2023-03-07T16:10:48.467Z,6.37
2023-03-07T16:13:20.635Z,6.67
2023-03-07T16:15:49.515Z,7.10
2023-03-07T16:18:18.451Z,6.90
2023-03-07T16:20:45.774Z,6.67
2023-03-07T16:23:14.084Z,7.30
2023-03-07T16:25:41.564Z,6.10
2023-03-07T16:28:09.984Z,6.77
2023-03-07T16:30:37.376Z,6.53
2023-03-07T16:33:04.722Z,6.40
2023-03-07T16:35:32.121Z,6.70
2023-03-07T16:37:59.416Z,7.13
2023-03-07T16:40:26.806Z,7.33
2023-03-07T16:42:54.689Z,7.07
2023-03-07T16:45:23.243Z,7.57
2023-03-07T16:47:51.739Z,7.73
2023-03-07T16:50:20.636Z,7.60
2023-03-07T16:52:47.901Z,7.80
2023-03-07T16:55:16.025Z,7.97
2023-03-07T16:57:44.896Z,7.50
2023-03-07T17:00:20.487Z,8.10
2023-03-07T17:02:48.305Z,7.17
2023-03-07T17:05:16.911Z,7.63
2023-03-07T17:07:44.199Z,7.70
2023-03-07T17:10:12.035Z,7.73
2023-03-07T17:12:40.080Z,8.17
2023-03-07T17:15:07.925Z,8.07
2023-03-07T17:17:36.374Z,7.63
2023-03-07T17:20:05.698Z,7.70
2023-03-07T17:22:33.307Z,8.00
2023-03-07T17:25:01.032Z,7.83
2023-03-07T17:27:28.845Z,8.33
2023-03-07T17:29:56.355Z,8.40
2023-03-07T17:32:23.764Z,7.73
2023-03-07T17:34:51.237Z,7.90
2023-03-07T17:37:18.600Z,7.47
2023-03-07T17:39:45.985Z,8.30
2023-03-07T17:42:13.484Z,8.27
2023-03-07T17:44:41.433Z,8.13
2023-03-07T17:47:08.880Z,7.93
2023-03-07T17:49:37.524Z,7.83
2023-03-07T17:52:06.031Z,8.50
2023-03-07T17:54:33.657Z,7.83
2023-03-07T17:57:01.759Z,7.50
2023-03-07T17:59:30.859Z,7.70
2023-03-07T18:01:58.236Z,7.93
2023-03-07T18:04:27.358Z,8.10
2023-03-07T18:06:54.715Z,8.50
2023-03-07T18:09:23.021Z,8.50
2023-03-07T18:11:50.378Z,9.00
2023-03-07T18:14:17.738Z,8.60
2023-03-07T18:16:45.620Z,9.77
2023-03-07T18:19:25.469Z,9.40
2023-03-07T18:21:43.296Z,9.60
2023-03-07T18:24:15.123Z,9.20
2023-03-07T18:26:42.446Z,9.70
2023-03-07T18:29:09.885Z,10.23
2023-03-07T18:31:37.269Z,10.90
2023-03-07T18:34:04.916Z,10.27
2023-03-07T18:36:32.246Z,9.80
2023-03-07T18:38:59.712Z,9.57
2023-03-07T18:41:28.019Z,10.27
2023-03-07T18:43:56.626Z,9.10
2023-03-07T18:46:25.005Z,10.47
2023-03-07T18:48:52.365Z,10.37
2023-03-07T18:51:22.414Z,10.40
2023-03-07T18:53:49.745Z,10.63
2023-03-07T18:56:17.377Z,9.67
2023-03-07T18:58:45.249Z,11.27
2023-03-07T19:01:16.900Z,10.17
2023-03-07T19:03:44.915Z,11.00
2023-03-07T19:06:13.197Z,11.13
2023-03-07T19:08:40.544Z,10.90
2023-03-07T19:11:08.939Z,11.67
2023-03-07T19:13:36.454Z,13.10
2023-03-07T19:16:05.798Z,12.30
2023-03-07T19:18:33.651Z,13.00
2023-03-07T19:21:01.133Z,10.93
2023-03-07T19:23:28.424Z,7.03
2023-03-07T19:25:55.749Z,7.70
2023-03-07T19:28:23.014Z,4.40
2023-03-07T19:30:51.665Z,5.73
2023-03-07T19:33:19.334Z,4.40
2023-03-07T19:35:46.700Z,5.00
2023-03-07T19:38:14.016Z,5.00
2023-03-07T19:40:41.327Z,4.50
2023-03-07T19:43:08.662Z,4.27
2023-03-07T19:45:37.555Z,4.10
2023-03-07T19:48:05.956Z,3.50
2023-03-07T19:50:33.330Z,4.53
2023-03-07T19:53:02.312Z,4.30
2023-03-07T19:55:30.089Z,4.17
2023-03-07T19:57:57.439Z,4.07
2023-03-07T20:00:24.850Z,4.40
2023-03-07T20:02:52.195Z,4.10
2023-03-07T20:05:19.933Z,3.83
2023-03-07T20:07:47.261Z,4.47
2023-03-07T20:10:14.604Z,5.30
2023-03-07T20:12:41.941Z,5.20
2023-03-07T20:15:09.500Z,6.00
2023-03-07T20:17:36.788Z,5.50
2023-03-07T20:20:06.595Z,5.07
2023-03-07T20:22:34.112Z,4.97
2023-03-07T20:25:01.436Z,5.50
2023-03-07T20:27:28.715Z,5.67
2023-03-07T20:29:56.210Z,5.50
2023-03-07T20:32:23.577Z,5.63
2023-03-07T20:34:52.458Z,6.47
2023-03-07T20:37:20.844Z,5.70
2023-03-07T20:39:48.200Z,5.17
2023-03-07T20:42:16.268Z,6.63
2023-03-07T20:44:43.723Z,6.40
2023-03-07T20:47:11.048Z,7.93
2023-03-07T20:49:38.389Z,7.70
2023-03-07T20:52:05.738Z,8.40
2023-03-07T20:54:33.053Z,7.33
2023-03-07T20:57:00.315Z,7.07
2023-03-07T20:59:27.652Z,7.07
2023-03-07T21:01:55.483Z,6.60
2023-03-07T21:04:22.791Z,7.00
2023-03-07T21:06:50.126Z,7.53
2023-03-07T21:09:18.652Z,6.87
2023-03-07T21:11:46.877Z,6.60
2023-03-07T21:14:14.670Z,7.00
2023-03-07T21:16:43.530Z,8.33
2023-03-07T21:19:11.284Z,6.07
2023-03-07T21:21:39.065Z,6.60
2023-03-07T21:24:06.926Z,5.33
2023-03-07T21:26:35.920Z,5.90
2023-03-07T21:29:08.034Z,5.80
2023-03-07T21:31:36.113Z,5.20
2023-03-07T21:34:05.039Z,5.50
2023-03-07T21:36:32.702Z,4.73
2023-03-07T21:39:00.186Z,4.03
2023-03-07T21:41:27.596Z,4.37
2023-03-07T21:43:55.467Z,4.53
2023-03-07T21:46:23.274Z,4.57
2023-03-07T21:48:51.077Z,4.50
2023-03-07T21:51:18.922Z,3.87
2023-03-07T21:53:46.455Z,4.90
2023-03-07T21:56:16.830Z,4.40
2023-03-07T21:58:45.679Z,4.50
2023-03-07T22:01:14.752Z,4.87
2023-03-07T22:03:42.675Z,4.00
2023-03-07T22:06:11.269Z,4.43
2023-03-07T22:08:38.757Z,3.80
2023-03-07T22:11:06.889Z,4.30
2023-03-07T22:13:35.579Z,3.70
2023-03-07T22:16:04.660Z,3.80
2023-03-07T22:18:32.776Z,3.30
2023-03-07T22:21:01.693Z,3.30
2023-03-07T22:23:29.203Z,3.40
2023-03-07T22:25:56.892Z,3.23
2023-03-07T22:28:24.172Z,3.03
2023-03-07T22:30:53.298Z,3.87
2023-03-07T22:33:20.904Z,3.60
2023-03-07T22:35:50.064Z,3.83
2023-03-07T22:38:19.328Z,3.60
2023-03-07T22:40:48.099Z,3.57
2023-03-07T22:43:15.831Z,3.00
2023-03-07T22:45:45.012Z,3.20
2023-03-07T22:48:12.820Z,2.80
2023-03-07T22:50:40.495Z,3.20
2023-03-07T22:53:08.314Z,3.63
2023-03-07T22:55:37.391Z,3.87
2023-03-07T22:58:04.999Z,3.87
2023-03-07T23:00:34.277Z,3.43
2023-03-07T23:03:01.999Z,4.03
2023-03-07T23:05:31.033Z,3.07
2023-03-07T23:07:58.823Z,3.67
2023-03-07T23:10:27.579Z,3.90
2023-03-07T23:12:55.088Z,3.40
2023-03-07T23:15:22.473Z,3.67
2023-03-07T23:17:49.757Z,4.00
2023-03-07T23:20:18.715Z,4.83
2023-03-07T23:22:46.625Z,4.50
2023-03-07T23:25:14.846Z,4.33
2023-03-07T23:27:42.361Z,4.30
2023-03-07T23:30:10.414Z,4.33
2023-03-07T23:32:38.200Z,4.63
2023-03-07T23:35:05.663Z,4.00
2023-03-07T23:37:33.064Z,4.93
2023-03-07T23:40:01.359Z,5.23
2023-03-07T23:42:28.699Z,4.13
2023-03-07T23:44:56.220Z,5.20
2023-03-07T23:47:23.605Z,5.03
2023-03-07T23:49:50.920Z,6.40
2023-03-07T23:52:18.192Z,5.70
2023-03-07T23:54:46.006Z,6.30
2023-03-07T23:57:13.278Z,5.10
2023-03-07T23:59:40.580Z,5.90
